Wetterdaten: Woche 25.01.10 - 31.01.10 (KW4)
Datum Zeit Temperatur Luftfeuchte Luftdruck Niederschlag Wind Richtung Sonnenschein Solar Taupunkt Windchill Windben
25.01.2010 00:00 0.4 C 85 % 1023.6 hPa 0.0 l/m 0.0 km/h (0 Bft) N 0.00 h 0 W/m -1.8 C 0.4 C 0.1 km/h (0 Bft)
25.01.2010 01:00 0.4 C 87 % 1023.6 hPa 0.0 l/m 0.0 km/h (0 Bft) N 0.00 h 0 W/m -1.6 C 0.4 C 0.1 km/h (0 Bft)
25.01.2010 02:00 0.4 C 88 % 1023.5 hPa 0.2 l/m 0.0 km/h (0 Bft) N 0.00 h 0 W/m -1.4 C 0.4 C 0.1 km/h (0 Bft)
25.01.2010 03:00 0.2 C 88 % 1023.6 hPa 0.2 l/m 0.0 km/h (0 Bft) N 0.00 h 0 W/m -1.6 C 0.2 C 0.0 km/h (0 Bft)
25.01.2010 04:00 0.1 C 90 % 1023.6 hPa 0.2 l/m 0.0 km/h (0 Bft) N 0.00 h 0 W/m -1.3 C 0.1 C 0.0 km/h (0 Bft)
25.01.2010 05:00 0.1 C 91 % 1023.8 hPa 0.4 l/m 0.0 km/h (0 Bft) N 0.00 h 0 W/m -1.1 C 0.1 C 0.0 km/h (0 Bft)
25.01.2010 06:00 0.1 C 93 % 1023.8 hPa 0.0 l/m 0.0 km/h (0 Bft) N 0.00 h 0 W/m -1.0 C 0.1 C 0.0 km/h (0 Bft)
25.01.2010 07:00 0.1 C 94 % 1024.3 hPa 0.0 l/m 0.0 km/h (0 Bft) N 0.00 h 0 W/m -0.8 C 0.1 C 0.0 km/h (0 Bft)
25.01.2010 08:00 0.2 C 94 % 1025.0 hPa 0.2 l/m 0.0 km/h (0 Bft) N 0.00 h 8 W/m -0.6 C 0.2 C 0.0 km/h (0 Bft)
25.01.2010 09:00 0.4 C 95 % 1025.4 hPa 0.0 l/m 0.3 km/h (0 Bft) O-SO 0.05 h 57 W/m -0.2 C 0.4 C 0.8 km/h (0 Bft)
25.01.2010 10:00 1.5 C 95 % 1025.8 hPa 0.0 l/m 1.0 km/h (0 Bft) S 0.18 h 117 W/m 0.8 C 1.5 C 2.5 km/h (1 Bft)
25.01.2010 11:00 2.1 C 93 % 1026.1 hPa 0.0 l/m 3.0 km/h (1 Bft) SW 0.15 h 163 W/m 1.1 C 1.8 C 5.3 km/h (1 Bft)
25.01.2010 12:00 2.2 C 89 % 1026.1 hPa 0.0 l/m 4.1 km/h (1 Bft) W-SW 0.00 h 161 W/m 0.6 C 1.5 C 7.0 km/h (2 Bft)
25.01.2010 13:00 2.8 C 85 % 1025.8 hPa 0.0 l/m 5.5 km/h (1 Bft) W 0.67 h 234 W/m 0.5 C 1.6 C 8.4 km/h (2 Bft)
25.01.2010 14:00 2.3 C 85 % 1026.1 hPa 0.0 l/m 4.4 km/h (1 Bft) W 0.00 h 32 W/m 0.0 C 1.5 C 7.1 km/h (2 Bft)
25.01.2010 15:00 1.9 C 87 % 1026.6 hPa 0.0 l/m 1.9 km/h (1 Bft) W-NW 0.00 h 22 W/m -0.1 C 1.7 C 4.0 km/h (1 Bft)
25.01.2010 16:00 1.8 C 87 % 1027.1 hPa 0.0 l/m 0.7 km/h (0 Bft) W-NW 0.00 h 8 W/m -0.1 C 1.8 C 1.8 km/h (1 Bft)
25.01.2010 17:00 1.8 C 88 % 1027.7 hPa 0.0 l/m 0.1 km/h (0 Bft) W-NW 0.00 h 0 W/m 0.0 C 1.8 C 0.5 km/h (0 Bft)
25.01.2010 18:00 1.7 C 89 % 1028.2 hPa 0.0 l/m 0.6 km/h (0 Bft) W-NW 0.00 h 0 W/m 0.0 C 1.7 C 1.7 km/h (1 Bft)
25.01.2010 19:00 1.6 C 90 % 1028.6 hPa 0.0 l/m 2.0 km/h (1 Bft) NW 0.00 h 0 W/m 0.1 C 1.5 C 3.9 km/h (1 Bft)
25.01.2010 20:00 1.6 C 91 % 1029.0 hPa 0.0 l/m 3.9 km/h (1 Bft) N 0.00 h 0 W/m 0.2 C 1.0 C 6.0 km/h (2 Bft)
25.01.2010 21:00 1.5 C 91 % 1029.3 hPa 0.0 l/m 2.8 km/h (1 Bft) N 0.00 h 0 W/m 0.2 C 1.2 C 5.0 km/h (1 Bft)
25.01.2010 22:00 1.4 C 92 % 1029.5 hPa 0.0 l/m 0.8 km/h (0 Bft) N 0.00 h 0 W/m 0.2 C 1.4 C 1.7 km/h (1 Bft)
25.01.2010 23:00 1.3 C 92 % 1029.8 hPa 0.0 l/m 1.7 km/h (1 Bft) N 0.00 h 0 W/m 0.1 C 1.2 C 3.6 km/h (1 Bft)
26.01.2010 00:00 1.1 C 92 % 1029.9 hPa 0.0 l/m 2.3 km/h (1 Bft) W-NW 0.00 h 0 W/m -0.0 C 1.0 C 4.4 km/h (1 Bft)
26.01.2010 01:00 0.7 C 92 % 1029.7 hPa 0.0 l/m 3.0 km/h (1 Bft) W-NW 0.00 h 0 W/m -0.5 C 0.1 C 4.8 km/h (1 Bft)
26.01.2010 02:00 0.4 C 91 % 1029.9 hPa 0.0 l/m 2.1 km/h (1 Bft) W 0.00 h 0 W/m -0.9 C 0.2 C 4.3 km/h (1 Bft)
26.01.2010 03:00 0.2 C 90 % 1029.9 hPa 0.0 l/m 2.6 km/h (1 Bft) W-NW 0.00 h 0 W/m -1.2 C -0.0 C 4.4 km/h (1 Bft)
26.01.2010 04:00 -0.0 C 90 % 1029.8 hPa 0.0 l/m 3.5 km/h (1 Bft) W 0.00 h 0 W/m -1.5 C -0.7 C 5.8 km/h (2 Bft)
26.01.2010 05:00 -0.1 C 89 % 1029.8 hPa 0.0 l/m 3.8 km/h (1 Bft) W 0.00 h 0 W/m -1.8 C -1.0 C 6.7 km/h (2 Bft)
26.01.2010 06:00 -0.2 C 87 % 1030.2 hPa 0.0 l/m 2.4 km/h (1 Bft) W-NW 0.00 h 0 W/m -2.1 C -0.7 C 4.5 km/h (1 Bft)
26.01.2010 07:00 -0.3 C 87 % 1030.0 hPa 0.4 l/m 0.4 km/h (0 Bft) W-NW 0.00 h 0 W/m -2.2 C -0.3 C 1.1 km/h (1 Bft)
26.01.2010 08:00 -0.4 C 88 % 1030.0 hPa 0.0 l/m 0.7 km/h (0 Bft) NW 0.00 h 7 W/m -2.1 C -0.4 C 2.1 km/h (1 Bft)
26.01.2010 09:00 -0.4 C 90 % 1030.4 hPa 0.0 l/m 0.3 km/h (0 Bft) NW 0.00 h 17 W/m -1.9 C -0.4 C 1.0 km/h (0 Bft)
26.01.2010 10:00 -0.2 C 90 % 1030.4 hPa 0.4 l/m 0.7 km/h (0 Bft) O 0.00 h 31 W/m -1.6 C -0.3 C 2.0 km/h (1 Bft)
26.01.2010 11:00 -0.3 C 86 % 1030.5 hPa 0.0 l/m 2.5 km/h (1 Bft) N-NO 0.00 h 44 W/m -2.3 C -0.5 C 6.0 km/h (2 Bft)
26.01.2010 12:00 -0.1 C 83 % 1030.3 hPa 0.2 l/m 2.9 km/h (1 Bft) N 0.00 h 75 W/m -2.7 C -0.6 C 6.5 km/h (2 Bft)
26.01.2010 13:00 0.1 C 80 % 1029.8 hPa 0.0 l/m 5.7 km/h (1 Bft) N 0.00 h 100 W/m -3.0 C -1.5 C 10.7 km/h (2 Bft)
26.01.2010 14:00 -0.4 C 79 % 1029.3 hPa 0.0 l/m 4.2 km/h (1 Bft) N-NO 0.00 h 38 W/m -3.6 C -1.3 C 8.5 km/h (2 Bft)
26.01.2010 15:00 -0.7 C 77 % 1029.4 hPa 0.0 l/m 3.9 km/h (1 Bft) N-NO 0.00 h 18 W/m -4.2 C -1.5 C 8.4 km/h (2 Bft)
26.01.2010 16:00 -1.0 C 77 % 1029.9 hPa 0.0 l/m 4.7 km/h (1 Bft) N 0.00 h 15 W/m -4.4 C -2.3 C 10.0 km/h (2 Bft)
26.01.2010 17:00 -1.4 C 78 % 1030.5 hPa 0.0 l/m 4.1 km/h (1 Bft) O 0.00 h 0 W/m -4.8 C -2.4 C 8.8 km/h (2 Bft)
26.01.2010 18:00 -2.4 C 75 % 1031.6 hPa 0.0 l/m 5.2 km/h (1 Bft) N-NO 0.00 h 0 W/m -6.2 C -4.0 C 11.4 km/h (2 Bft)
26.01.2010 19:00 -2.9 C 72 % 1031.8 hPa 0.0 l/m 5.1 km/h (1 Bft) O 0.00 h 0 W/m -7.2 C -4.6 C 10.6 km/h (2 Bft)
26.01.2010 20:00 -3.4 C 72 % 1031.9 hPa 0.0 l/m 6.1 km/h (2 Bft) O-SO 0.00 h 0 W/m -7.7 C -5.6 C 13.7 km/h (3 Bft)
26.01.2010 21:00 -3.7 C 71 % 1031.6 hPa 0.0 l/m 5.0 km/h (1 Bft) N-NO 0.00 h 0 W/m -8.1 C -5.4 C 10.5 km/h (2 Bft)
26.01.2010 22:00 -3.8 C 73 % 1031.6 hPa 0.0 l/m 7.5 km/h (2 Bft) N-NO 0.00 h 0 W/m -7.9 C -6.6 C 15.9 km/h (3 Bft)
26.01.2010 23:00 -3.7 C 74 % 1032.1 hPa 0.0 l/m 7.1 km/h (2 Bft) N 0.00 h 0 W/m -7.6 C -6.3 C 14.2 km/h (3 Bft)
27.01.2010 00:00 -3.8 C 75 % 1032.0 hPa 0.0 l/m 6.0 km/h (2 Bft) N-NO 0.00 h 0 W/m -7.5 C -5.9 C 13.4 km/h (3 Bft)
27.01.2010 01:00 -4.1 C 76 % 1031.7 hPa 0.0 l/m 5.1 km/h (1 Bft) N-NO 0.00 h 0 W/m -7.6 C -5.6 C 11.0 km/h (2 Bft)
27.01.2010 02:00 -4.1 C 76 % 1031.5 hPa 0.0 l/m 2.9 km/h (1 Bft) O 0.00 h 0 W/m -7.7 C -4.8 C 6.8 km/h (2 Bft)
27.01.2010 03:00 -4.2 C 76 % 1031.2 hPa 0.0 l/m 2.8 km/h (1 Bft) N-NO 0.00 h 0 W/m -7.8 C -4.8 C 6.5 km/h (2 Bft)
27.01.2010 04:00 -4.5 C 76 % 1031.1 hPa 0.0 l/m 3.6 km/h (1 Bft) N 0.00 h 0 W/m -8.1 C -5.5 C 8.2 km/h (2 Bft)
27.01.2010 05:00 -4.7 C 75 % 1031.1 hPa 0.0 l/m 3.5 km/h (1 Bft) O-SO 0.00 h 0 W/m -8.4 C -5.5 C 8.1 km/h (2 Bft)
27.01.2010 06:00 -4.9 C 75 % 1030.9 hPa 0.0 l/m 3.3 km/h (1 Bft) N 0.00 h 0 W/m -8.7 C -5.8 C 7.9 km/h (2 Bft)
27.01.2010 07:00 -5.3 C 76 % 1030.9 hPa 0.0 l/m 3.9 km/h (1 Bft) N-NO 0.00 h 0 W/m -8.9 C -6.4 C 8.4 km/h (2 Bft)
27.01.2010 08:00 -5.6 C 76 % 1031.1 hPa 0.0 l/m 3.3 km/h (1 Bft) NO 0.00 h 12 W/m -9.1 C -6.5 C 7.1 km/h (2 Bft)
27.01.2010 09:00 -5.5 C 76 % 1031.0 hPa 0.0 l/m 2.9 km/h (1 Bft) N-NO 0.00 h 28 W/m -9.1 C -6.1 C 6.1 km/h (2 Bft)
27.01.2010 10:00 -5.4 C 77 % 1030.8 hPa 0.0 l/m 2.8 km/h (1 Bft) O 0.00 h 66 W/m -8.8 C -6.0 C 6.1 km/h (2 Bft)
27.01.2010 11:00 -4.9 C 76 % 1030.6 hPa 0.0 l/m 1.9 km/h (1 Bft) NO 0.00 h 131 W/m -8.5 C -5.1 C 4.8 km/h (1 Bft)
27.01.2010 12:00 -4.2 C 73 % 1029.8 hPa 0.0 l/m 3.1 km/h (1 Bft) N-NO 0.00 h 125 W/m -8.4 C -4.7 C 6.3 km/h (2 Bft)
27.01.2010 13:00 -4.1 C 72 % 1028.6 hPa 0.0 l/m 1.3 km/h (1 Bft) SO 0.00 h 127 W/m -8.4 C -4.3 C 3.2 km/h (1 Bft)
27.01.2010 14:00 -3.8 C 71 % 1027.4 hPa 0.0 l/m 0.7 km/h (0 Bft) SW 0.00 h 113 W/m -8.2 C -3.8 C 2.3 km/h (1 Bft)
27.01.2010 15:00 -3.6 C 72 % 1026.8 hPa 0.0 l/m 0.4 km/h (0 Bft) NW 0.17 h 99 W/m -7.9 C -3.6 C 1.5 km/h (1 Bft)
27.01.2010 16:00 -3.7 C 71 % 1026.5 hPa 0.0 l/m 1.8 km/h (1 Bft) W-NW 0.00 h 44 W/m -8.1 C -3.8 C 3.7 km/h (1 Bft)
27.01.2010 17:00 -4.1 C 73 % 1026.2 hPa 0.0 l/m 2.4 km/h (1 Bft) W 0.00 h 8 W/m -8.3 C -4.3 C 4.2 km/h (1 Bft)
27.01.2010 18:00 -4.5 C 75 % 1025.7 hPa 0.0 l/m 2.3 km/h (1 Bft) W-SW 0.00 h 0 W/m -8.3 C -4.6 C 4.4 km/h (1 Bft)
27.01.2010 19:00 -4.6 C 76 % 1025.0 hPa 0.0 l/m 2.2 km/h (1 Bft) W 0.00 h 0 W/m -8.1 C -4.9 C 4.4 km/h (1 Bft)
27.01.2010 20:00 -4.5 C 77 % 1024.1 hPa 0.0 l/m 2.5 km/h (1 Bft) W 0.00 h 0 W/m -7.9 C -4.8 C 4.8 km/h (1 Bft)
27.01.2010 21:00 -4.2 C 78 % 1023.2 hPa 0.0 l/m 2.7 km/h (1 Bft) SW 0.00 h 0 W/m -7.4 C -4.5 C 4.9 km/h (1 Bft)
27.01.2010 22:00 -4.0 C 78 % 1022.2 hPa 0.0 l/m 3.2 km/h (1 Bft) S 0.00 h 0 W/m -7.3 C -4.4 C 5.8 km/h (2 Bft)
27.01.2010 23:00 -3.7 C 78 % 1020.4 hPa 0.0 l/m 4.1 km/h (1 Bft) SW 0.00 h 0 W/m -7.0 C -4.7 C 6.6 km/h (2 Bft)
28.01.2010 00:00 -3.4 C 78 % 1018.9 hPa 0.0 l/m 3.7 km/h (1 Bft) SW 0.00 h 0 W/m -6.7 C -4.2 C 6.1 km/h (2 Bft)
28.01.2010 01:00 -3.1 C 76 % 1018.1 hPa 0.0 l/m 5.9 km/h (2 Bft) SW 0.00 h 0 W/m -6.6 C -5.4 C 9.4 km/h (2 Bft)
28.01.2010 02:00 -2.9 C 79 % 1017.2 hPa 0.0 l/m 6.9 km/h (2 Bft) SW 0.00 h 0 W/m -6.0 C -5.5 C 10.4 km/h (2 Bft)
28.01.2010 03:00 -2.9 C 82 % 1016.2 hPa 0.0 l/m 4.7 km/h (1 Bft) SW 0.00 h 0 W/m -5.5 C -4.3 C 7.6 km/h (2 Bft)
28.01.2010 04:00 -2.8 C 85 % 1015.1 hPa 0.2 l/m 4.9 km/h (1 Bft) SW 0.00 h 0 W/m -4.9 C -4.2 C 7.4 km/h (2 Bft)
28.01.2010 05:00 -2.8 C 88 % 1014.5 hPa 0.2 l/m 1.7 km/h (1 Bft) S-SW 0.00 h 0 W/m -4.5 C -2.9 C 3.4 km/h (1 Bft)
28.01.2010 06:00 -2.6 C 89 % 1013.9 hPa 0.0 l/m 2.3 km/h (1 Bft) S-SW 0.00 h 0 W/m -4.2 C -3.0 C 4.8 km/h (1 Bft)
28.01.2010 07:00 -2.3 C 88 % 1013.8 hPa 0.0 l/m 5.0 km/h (1 Bft) W-NW 0.00 h 0 W/m -4.0 C -3.6 C 8.0 km/h (2 Bft)
28.01.2010 08:00 -1.9 C 86 % 1013.7 hPa 0.4 l/m 6.3 km/h (2 Bft) W-SW 0.00 h 7 W/m -4.0 C -4.1 C 9.6 km/h (2 Bft)
28.01.2010 09:00 -1.8 C 85 % 1013.2 hPa 0.0 l/m 5.9 km/h (2 Bft) W 0.00 h 19 W/m -4.0 C -3.7 C 9.3 km/h (2 Bft)
28.01.2010 10:00 -1.5 C 84 % 1013.2 hPa 0.0 l/m 5.6 km/h (1 Bft) W-SW 0.00 h 39 W/m -3.8 C -3.1 C 8.8 km/h (2 Bft)
28.01.2010 11:00 -0.9 C 82 % 1013.3 hPa 0.0 l/m 6.6 km/h (2 Bft) W 0.00 h 57 W/m -3.6 C -3.0 C 10.9 km/h (2 Bft)
28.01.2010 12:00 -0.7 C 79 % 1012.5 hPa 0.2 l/m 9.0 km/h (2 Bft) W 0.00 h 43 W/m -3.9 C -3.8 C 14.1 km/h (3 Bft)
28.01.2010 13:00 -0.8 C 80 % 1011.6 hPa 0.0 l/m 6.2 km/h (2 Bft) SW 0.00 h 37 W/m -3.9 C -2.8 C 9.7 km/h (2 Bft)
28.01.2010 14:00 -0.6 C 81 % 1010.9 hPa 0.0 l/m 5.0 km/h (1 Bft) W-SW 0.00 h 48 W/m -3.5 C -2.0 C 8.1 km/h (2 Bft)
28.01.2010 15:00 -0.6 C 81 % 1010.7 hPa 0.0 l/m 5.4 km/h (1 Bft) W 0.00 h 26 W/m -3.5 C -2.1 C 8.0 km/h (2 Bft)
28.01.2010 16:00 -0.5 C 80 % 1010.6 hPa 0.0 l/m 5.2 km/h (1 Bft) W-NW 0.00 h 15 W/m -3.5 C -1.9 C 8.5 km/h (2 Bft)
28.01.2010 17:00 -0.6 C 80 % 1010.3 hPa 0.0 l/m 6.8 km/h (2 Bft) W-NW 0.03 h 9 W/m -3.6 C -2.9 C 11.2 km/h (2 Bft)
28.01.2010 18:00 -0.6 C 81 % 1010.1 hPa 0.0 l/m 2.3 km/h (1 Bft) W-NW 0.00 h 0 W/m -3.4 C -1.0 C 5.1 km/h (1 Bft)
28.01.2010 19:00 -0.6 C 82 % 1009.8 hPa 0.0 l/m 1.3 km/h (1 Bft) O 0.00 h 0 W/m -3.3 C -0.6 C 2.5 km/h (1 Bft)
28.01.2010 20:00 -0.4 C 83 % 1009.4 hPa 0.0 l/m 1.0 km/h (0 Bft) W-SW 0.00 h 0 W/m -3.0 C -0.5 C 2.5 km/h (1 Bft)
28.01.2010 21:00 -0.8 C 87 % 1008.9 hPa 0.0 l/m 2.6 km/h (1 Bft) SO 0.00 h 0 W/m -2.7 C -1.2 C 4.6 km/h (1 Bft)
28.01.2010 22:00 -0.6 C 88 % 1008.4 hPa 0.0 l/m 4.8 km/h (1 Bft) W-NW 0.00 h 0 W/m -2.4 C -2.1 C 8.3 km/h (2 Bft)
28.01.2010 23:00 0.0 C 85 % 1007.6 hPa 0.0 l/m 10.5 km/h (2 Bft) W 0.00 h 0 W/m -2.2 C -3.2 C 17.2 km/h (3 Bft)
29.01.2010 00:00 0.0 C 83 % 1007.0 hPa 0.0 l/m 2.4 km/h (1 Bft) W-NW 0.00 h 0 W/m -2.6 C -0.2 C 4.5 km/h (1 Bft)
29.01.2010 01:00 -0.4 C 84 % 1006.2 hPa 0.0 l/m 1.2 km/h (1 Bft) S-SO 0.00 h 0 W/m -2.8 C -0.4 C 2.6 km/h (1 Bft)
29.01.2010 02:00 -0.6 C 85 % 1005.3 hPa 0.0 l/m 1.9 km/h (1 Bft) S-SO 0.00 h 0 W/m -2.9 C -0.7 C 4.3 km/h (1 Bft)
29.01.2010 03:00 -0.7 C 85 % 1004.4 hPa 0.0 l/m 2.7 km/h (1 Bft) S-SO 0.00 h 0 W/m -2.9 C -1.0 C 5.3 km/h (1 Bft)
29.01.2010 04:00 -0.6 C 84 % 1003.4 hPa 0.0 l/m 3.0 km/h (1 Bft) SW 0.00 h 0 W/m -2.9 C -0.9 C 5.6 km/h (1 Bft)
29.01.2010 05:00 -0.6 C 84 % 1002.4 hPa 0.0 l/m 2.8 km/h (1 Bft) S-SO 0.00 h 0 W/m -2.9 C -0.9 C 5.4 km/h (1 Bft)
29.01.2010 06:00 -0.6 C 84 % 1001.3 hPa 0.0 l/m 3.0 km/h (1 Bft) S-SW 0.00 h 0 W/m -3.0 C -0.9 C 5.5 km/h (1 Bft)
29.01.2010 07:00 -0.6 C 86 % 1000.6 hPa 0.0 l/m 2.6 km/h (1 Bft) S-SW 0.00 h 0 W/m -2.6 C -0.7 C 4.5 km/h (1 Bft)
29.01.2010 08:00 -0.5 C 89 % 1000.0 hPa 0.2 l/m 3.1 km/h (1 Bft) SW 0.00 h 13 W/m -2.1 C -0.7 C 5.2 km/h (1 Bft)
29.01.2010 09:00 -0.1 C 91 % 999.4 hPa 0.4 l/m 1.6 km/h (1 Bft) SW 0.00 h 34 W/m -1.4 C -0.1 C 3.8 km/h (1 Bft)
29.01.2010 10:00 0.5 C 91 % 998.6 hPa 0.0 l/m 5.3 km/h (1 Bft) SW 0.02 h 131 W/m -0.8 C -0.9 C 8.7 km/h (2 Bft)
29.01.2010 11:00 1.1 C 89 % 997.2 hPa 0.0 l/m 4.8 km/h (1 Bft) SW 0.00 h 125 W/m -0.5 C 0.1 C 8.5 km/h (2 Bft)
29.01.2010 12:00 1.1 C 87 % 995.6 hPa 0.0 l/m 6.8 km/h (2 Bft) SW 0.00 h 155 W/m -0.7 C -0.9 C 11.7 km/h (2 Bft)
29.01.2010 13:00 1.5 C 84 % 993.8 hPa 0.0 l/m 7.8 km/h (2 Bft) SW 0.00 h 143 W/m -0.9 C -0.9 C 13.1 km/h (3 Bft)
29.01.2010 14:00 1.8 C 82 % 992.3 hPa 0.0 l/m 6.5 km/h (2 Bft) SW 0.00 h 97 W/m -0.9 C -0.1 C 11.1 km/h (2 Bft)
29.01.2010 15:00 1.8 C 80 % 990.8 hPa 0.0 l/m 9.6 km/h (2 Bft) SW 0.00 h 68 W/m -1.3 C -1.0 C 16.0 km/h (3 Bft)
29.01.2010 16:00 1.6 C 81 % 989.8 hPa 0.2 l/m 7.3 km/h (2 Bft) SW 0.00 h 19 W/m -1.3 C -0.5 C 12.4 km/h (3 Bft)
29.01.2010 17:00 0.9 C 89 % 989.0 hPa 0.6 l/m 8.7 km/h (2 Bft) SW 0.00 h 5 W/m -0.8 C -1.8 C 14.8 km/h (3 Bft)
29.01.2010 18:00 1.0 C 91 % 988.2 hPa 0.2 l/m 6.5 km/h (2 Bft) S-SW 0.00 h 0 W/m -0.3 C -0.8 C 10.8 km/h (2 Bft)
29.01.2010 19:00 1.4 C 91 % 987.6 hPa 0.6 l/m 5.5 km/h (1 Bft) SW 0.00 h 0 W/m 0.1 C -0.1 C 9.4 km/h (2 Bft)
29.01.2010 20:00 1.5 C 91 % 987.5 hPa 0.8 l/m 1.0 km/h (0 Bft) S-SW 0.00 h 0 W/m 0.2 C 1.4 C 2.5 km/h (1 Bft)
29.01.2010 21:00 1.4 C 91 % 987.0 hPa 0.2 l/m 1.0 km/h (0 Bft) W 0.00 h 0 W/m 0.1 C 1.4 C 2.5 km/h (1 Bft)
29.01.2010 22:00 1.3 C 92 % 986.8 hPa 0.4 l/m 1.1 km/h (0 Bft) W-SW 0.00 h 0 W/m 0.1 C 1.3 C 2.6 km/h (1 Bft)
29.01.2010 23:00 1.3 C 92 % 987.0 hPa 1.8 l/m 1.4 km/h (1 Bft) W-NW 0.00 h 0 W/m 0.2 C 1.1 C 2.8 km/h (1 Bft)
30.01.2010 00:00 1.3 C 93 % 987.6 hPa 0.8 l/m 14.2 km/h (3 Bft) W 0.00 h 0 W/m 0.3 C -2.3 C 21.7 km/h (4 Bft)
30.01.2010 01:00 1.2 C 92 % 988.2 hPa 0.0 l/m 14.2 km/h (3 Bft) W 0.00 h 0 W/m 0.0 C -2.8 C 22.2 km/h (4 Bft)
30.01.2010 02:00 1.0 C 91 % 989.6 hPa 0.0 l/m 14.4 km/h (3 Bft) W 0.00 h 0 W/m -0.4 C -3.0 C 22.1 km/h (4 Bft)
30.01.2010 03:00 0.8 C 91 % 990.7 hPa 0.0 l/m 14.6 km/h (3 Bft) W 0.00 h 0 W/m -0.6 C -3.3 C 21.9 km/h (4 Bft)
30.01.2010 04:00 0.8 C 88 % 991.5 hPa 0.0 l/m 14.9 km/h (3 Bft) W 0.00 h 0 W/m -1.0 C -3.3 C 23.1 km/h (4 Bft)
30.01.2010 05:00 0.7 C 84 % 992.4 hPa 0.0 l/m 13.0 km/h (3 Bft) W 0.00 h 0 W/m -1.7 C -3.1 C 20.6 km/h (4 Bft)
30.01.2010 06:00 0.5 C 82 % 993.0 hPa 0.0 l/m 11.8 km/h (2 Bft) W 0.00 h 0 W/m -2.2 C -3.2 C 19.0 km/h (3 Bft)
30.01.2010 07:00 0.0 C 83 % 993.5 hPa 0.0 l/m 15.5 km/h (3 Bft) W 0.00 h 0 W/m -2.5 C -4.4 C 23.6 km/h (4 Bft)
30.01.2010 08:00 -0.6 C 81 % 994.2 hPa 0.0 l/m 16.5 km/h (3 Bft) W 0.00 h 17 W/m -3.5 C -5.3 C 24.9 km/h (4 Bft)
30.01.2010 09:00 -0.3 C 77 % 995.3 hPa 0.0 l/m 17.7 km/h (3 Bft) W 0.67 h 181 W/m -3.8 C -5.2 C 26.0 km/h (4 Bft)
30.01.2010 10:00 -0.6 C 78 % 996.0 hPa 0.0 l/m 17.5 km/h (3 Bft) W 0.22 h 123 W/m -3.9 C -5.5 C 25.8 km/h (4 Bft)
30.01.2010 11:00 0.3 C 70 % 996.6 hPa 0.0 l/m 15.7 km/h (3 Bft) W 0.98 h 405 W/m -4.6 C -4.1 C 23.7 km/h (4 Bft)
30.01.2010 12:00 0.9 C 63 % 996.6 hPa 0.0 l/m 12.8 km/h (3 Bft) W 0.95 h 364 W/m -5.3 C -2.8 C 19.7 km/h (3 Bft)
30.01.2010 13:00 1.8 C 55 % 996.1 hPa 0.0 l/m 12.4 km/h (3 Bft) W 1.00 h 418 W/m -6.3 C -1.7 C 19.1 km/h (3 Bft)
30.01.2010 14:00 1.3 C 55 % 996.2 hPa 0.0 l/m 11.8 km/h (2 Bft) W-SW 0.62 h 264 W/m -6.7 C -2.1 C 18.1 km/h (3 Bft)
30.01.2010 15:00 0.4 C 59 % 996.8 hPa 0.0 l/m 9.7 km/h (2 Bft) W 0.07 h 76 W/m -6.7 C -2.7 C 15.0 km/h (3 Bft)
30.01.2010 16:00 -1.1 C 79 % 997.5 hPa 0.2 l/m 5.4 km/h (1 Bft) W 0.00 h 25 W/m -4.4 C -2.9 C 8.4 km/h (2 Bft)
30.01.2010 17:00 -2.0 C 83 % 997.8 hPa 0.0 l/m 4.6 km/h (1 Bft) W 0.17 h 16 W/m -4.5 C -3.4 C 7.5 km/h (2 Bft)
30.01.2010 18:00 -2.3 C 84 % 998.7 hPa 0.0 l/m 5.9 km/h (2 Bft) W-SW 0.00 h 0 W/m -4.7 C -4.4 C 9.0 km/h (2 Bft)
30.01.2010 19:00 -2.7 C 81 % 999.7 hPa 0.0 l/m 5.2 km/h (1 Bft) W 0.00 h 0 W/m -5.5 C -4.5 C 9.4 km/h (2 Bft)
30.01.2010 20:00 -2.6 C 81 % 1000.5 hPa 0.0 l/m 2.5 km/h (1 Bft) SW 0.00 h 0 W/m -5.3 C -2.9 C 4.8 km/h (1 Bft)
30.01.2010 21:00 -2.9 C 80 % 1000.9 hPa 0.0 l/m 1.8 km/h (1 Bft) W 0.00 h 0 W/m -5.8 C -2.9 C 3.4 km/h (1 Bft)
30.01.2010 22:00 -3.8 C 80 % 1001.5 hPa 0.0 l/m 2.6 km/h (1 Bft) SW 0.00 h 0 W/m -6.8 C -4.2 C 4.8 km/h (1 Bft)
30.01.2010 23:00 -3.6 C 83 % 1002.0 hPa 0.0 l/m 3.4 km/h (1 Bft) S-SO 0.00 h 0 W/m -6.0 C -4.3 C 6.7 km/h (2 Bft)
31.01.2010 00:00 -3.3 C 85 % 1002.3 hPa 0.0 l/m 2.1 km/h (1 Bft) S-SO 0.00 h 0 W/m -5.5 C -3.6 C 4.4 km/h (1 Bft)
31.01.2010 01:00 -3.1 C 85 % 1002.6 hPa 0.0 l/m 0.8 km/h (0 Bft) N-NW 0.00 h 0 W/m -5.3 C -3.2 C 2.5 km/h (1 Bft)
31.01.2010 02:00 -3.3 C 85 % 1003.5 hPa 0.0 l/m 0.9 km/h (0 Bft) W-NW 0.00 h 0 W/m -5.4 C -3.3 C 2.1 km/h (1 Bft)
31.01.2010 03:00 -3.6 C 85 % 1004.2 hPa 0.0 l/m 2.1 km/h (1 Bft) W 0.00 h 0 W/m -5.8 C -3.9 C 3.9 km/h (1 Bft)
31.01.2010 04:00 -4.6 C 85 % 1005.2 hPa 0.0 l/m 1.8 km/h (1 Bft) NW 0.00 h 0 W/m -6.8 C -4.9 C 3.4 km/h (1 Bft)
31.01.2010 05:00 -5.5 C 85 % 1005.7 hPa 0.0 l/m 0.4 km/h (0 Bft) NW 0.00 h 0 W/m -7.6 C -5.5 C 1.0 km/h (0 Bft)
31.01.2010 06:00 -5.9 C 86 % 1006.2 hPa 0.0 l/m 1.1 km/h (0 Bft) O 0.00 h 0 W/m -7.8 C -6.2 C 1.7 km/h (1 Bft)
31.01.2010 07:00 -5.6 C 88 % 1006.9 hPa 0.0 l/m 0.7 km/h (0 Bft) O 0.00 h 6 W/m -7.3 C -5.6 C 1.7 km/h (1 Bft)
31.01.2010 08:00 -4.6 C 88 % 1007.4 hPa 0.0 l/m 2.1 km/h (1 Bft) S 0.13 h 20 W/m -6.3 C -4.7 C 4.7 km/h (1 Bft)
31.01.2010 09:00 -4.3 C 88 % 1007.9 hPa 0.0 l/m 2.2 km/h (1 Bft) S 0.00 h 18 W/m -5.9 C -4.3 C 4.7 km/h (1 Bft)
31.01.2010 10:00 -3.9 C 88 % 1008.3 hPa 0.6 l/m 3.4 km/h (1 Bft) S-SO 0.00 h 28 W/m -5.6 C -4.6 C 6.3 km/h (2 Bft)
31.01.2010 11:00 -3.6 C 88 % 1008.5 hPa 0.6 l/m 3.6 km/h (1 Bft) S-SO 0.00 h 33 W/m -5.2 C -4.3 C 6.7 km/h (2 Bft)
31.01.2010 12:00 -3.0 C 88 % 1008.7 hPa 0.6 l/m 4.0 km/h (1 Bft) S 0.00 h 37 W/m -4.8 C -4.0 C 8.0 km/h (2 Bft)
31.01.2010 13:00 -2.6 C 86 % 1008.7 hPa 0.4 l/m 3.3 km/h (1 Bft) S 0.00 h 32 W/m -4.6 C -3.1 C 6.3 km/h (2 Bft)
31.01.2010 14:00 -2.5 C 85 % 1008.8 hPa 0.2 l/m 3.4 km/h (1 Bft) S-SW 0.00 h 19 W/m -4.7 C -3.1 C 6.0 km/h (2 Bft)
31.01.2010 15:00 -2.6 C 84 % 1009.4 hPa 0.0 l/m 3.3 km/h (1 Bft) S 0.00 h 12 W/m -4.9 C -3.0 C 6.2 km/h (2 Bft)
31.01.2010 16:00 -2.7 C 85 % 1010.0 hPa 0.0 l/m 4.0 km/h (1 Bft) S-SO 0.00 h 8 W/m -4.8 C -3.6 C 6.7 km/h (2 Bft)
31.01.2010 17:00 -2.8 C 85 % 1010.7 hPa 0.0 l/m 3.6 km/h (1 Bft) S-SO 0.00 h 0 W/m -4.9 C -3.6 C 6.7 km/h (2 Bft)
31.01.2010 18:00 -2.9 C 86 % 1011.2 hPa 0.0 l/m 2.3 km/h (1 Bft) S-SO 0.00 h 0 W/m -4.9 C -3.1 C 4.2 km/h (1 Bft)
31.01.2010 19:00 -3.0 C 86 % 1011.8 hPa 0.0 l/m 2.0 km/h (1 Bft) S 0.00 h 0 W/m -5.0 C -3.0 C 4.0 km/h (1 Bft)
31.01.2010 20:00 -3.0 C 86 % 1012.2 hPa 0.0 l/m 2.3 km/h (1 Bft) S 0.00 h 0 W/m -5.0 C -3.1 C 4.5 km/h (1 Bft)
31.01.2010 21:00 -2.9 C 86 % 1012.3 hPa 0.0 l/m 1.6 km/h (1 Bft) S-SO 0.00 h 0 W/m -4.9 C -3.0 C 4.1 km/h (1 Bft)
31.01.2010 22:00 -3.1 C 86 % 1012.7 hPa 0.0 l/m 2.5 km/h (1 Bft) SO 0.00 h 0 W/m -5.2 C -3.1 C 4.4 km/h (1 Bft)
31.01.2010 23:00 -3.3 C 86 % 1012.8 hPa 0.0 l/m 2.2 km/h (1 Bft) O-SO 0.00 h 0 W/m -5.3 C -3.4 C 4.1 km/h (1 Bft)
Min-Datum _ 31.01.10 30.01.10 29.01.10 - 25.01.10 - - - 27.01.10 27.01.10 25.01.10
_ Min-Zeit 06:36 13:35 22:30 - 00:00 - - - 07:09 07:43 00:00
Minimum _ -6.1 C 53 % 986.7 hPa - 0.0 km/h (0 Bft) - - - -9.3 C -9.9 C 0.0 km/h (0 Bft)
Max-Datum _ 25.01.10 25.01.10 26.01.10 29.01.10 30.01.10 - 25.01.10 30.01.10 25.01.10 25.01.10 30.01.10
_ Max-Zeit 13:20 09:55 20:00 23:03 08:31 - 09:56 11:53 11:12 13:35 08:17
Maximum _ 2.9 C 96 % 1032.1 hPa 1.8 l/m 26.1 km/h
W (4 Bft)
- 0.02 h 629 W/m 1.4 C 2.9 C 45.2 km/h
W (6 Bft)
Durchschnitt _ -1.3 C 83 % 1013.9 hPa #12.0 l/m 4.3 km/h (1 Bft) W #6:04 h 30 W/m -3.8 C -2.4 C 7.5 km/h (2 Bft)
© Kaiko 2010